Time;durP1;ratioP1;P1;durP2;ratioP2;P2;SDS_P1;SDS_P2;PMS_P1;PMS_P2;Temp;Humidity;BMP_temperature;BMP_pressure;BME280_temperature;BME280_humidity;BME280_pressure;Samples;Min_cycle;Max_cycle;Signal;HPM_P1;HPM_P2
2023/01/03 00:01:06;;;;;;;1.60;1.20;;;11.20;95.50;;;;;;20920064;28;20232;-68
2023/01/03 00:11:13;;;;;;;1.13;1.03;;;11.20;95.40;;;;;;20919109;28;20737;-71
2023/01/03 00:21:14;;;;;;;3.40;1.20;;;11.30;95.40;;;;;;20918524;28;20237;-71
2023/01/03 00:31:16;;;;;;;1.50;1.30;;;11.30;95.30;;;;;;20917541;28;20214;-71
2023/01/03 00:41:19;;;;;;;2.67;2.17;;;11.20;95.20;;;;;;20916766;28;20289;-72
2023/01/03 00:51:26;;;;;;;3.00;2.43;;;11.00;95.30;;;;;;20916612;28;20264;-70
2023/01/03 01:01:30;;;;;;;2.27;2.07;;;10.80;95.30;;;;;;20916167;28;20252;-71
2023/01/03 01:11:33;;;;;;;2.20;1.60;;;10.60;95.50;;;;;;20914660;28;20202;-69
2023/01/03 01:21:34;;;;;;;1.30;1.20;;;10.40;95.60;;;;;;20915263;28;20636;-69
2023/01/03 01:31:37;;;;;;;2.67;1.33;;;10.20;95.70;;;;;;20913328;28;20217;-70
2023/01/03 01:52:20;;;;;;;2.37;1.40;;;10.10;95.90;;;;;;20894646;28;20210;-68
2023/01/03 02:02:22;;;;;;;1.60;1.20;;;10.20;95.80;;;;;;20911843;28;20242;-68
2023/01/03 02:23:15;;;;;;;1.73;1.30;;;10.00;95.60;;;;;;20911024;28;20231;-73
2023/01/03 02:33:30;;;;;;;2.03;1.20;;;10.00;95.60;;;;;;20911004;28;20296;-72
2023/01/03 02:43:36;;;;;;;2.77;1.50;;;10.00;95.60;;;;;;20910273;28;20751;-73
2023/01/03 02:53:45;;;;;;;4.60;1.40;;;9.80;96.10;;;;;;20911254;28;20244;-72
2023/01/03 03:03:48;;;;;;;1.90;1.60;;;9.70;96.30;;;;;;20925056;28;20600;-72
2023/01/03 03:13:55;;;;;;;2.37;1.60;;;9.60;96.50;;;;;;20924637;28;20201;-72
2023/01/03 03:25:06;;;;;;;2.10;1.70;;;9.50;96.60;;;;;;20923108;28;20229;-69
2023/01/03 03:34:37;;;;;;;4.53;2.50;;;9.50;96.70;;;;;;20917999;28;20228;-68
2023/01/03 03:55:18;;;;;;;3.33;2.90;;;9.50;97.70;;;;;;20920845;28;20205;-68
2023/01/03 04:05:22;;;;;;;2.70;2.40;;;9.60;98.00;;;;;;20919908;28;20604;-69
2023/01/03 04:15:24;;;;;;;3.50;2.57;;;9.40;97.60;;;;;;20920254;28;20201;-72
2023/01/03 04:25:26;;;;;;;4.30;2.80;;;9.30;97.80;;;;;;20918352;28;20693;-70
2023/01/03 04:35:27;;;;;;;4.33;2.60;;;9.10;97.80;;;;;;20917703;28;20228;-68
2023/01/03 04:45:29;;;;;;;4.23;2.70;;;8.90;97.90;;;;;;20917362;28;20363;-68
2023/01/03 04:55:31;;;;;;;3.70;3.00;;;8.80;97.90;;;;;;20916628;28;20220;-69
2023/01/03 05:05:34;;;;;;;5.97;3.90;;;8.70;97.90;;;;;;20915969;28;20232;-70
2023/01/03 05:15:38;;;;;;;4.90;3.40;;;8.60;98.30;;;;;;20913430;28;20205;-70
2023/01/03 05:25:48;;;;;;;4.83;3.13;;;8.30;97.60;;;;;;20912718;28;20638;-69
2023/01/03 05:35:50;;;;;;;3.17;2.87;;;8.40;97.90;;;;;;20913240;28;20235;-69
2023/01/03 05:45:52;;;;;;;11.07;5.00;;;8.20;98.00;;;;;;20913198;28;20649;-72
2023/01/03 05:55:55;;;;;;;7.13;4.67;;;8.10;98.00;;;;;;20910890;28;20265;-70
2023/01/03 06:06:01;;;;;;;5.40;3.70;;;8.00;98.10;;;;;;20910990;28;20236;-71
2023/01/03 06:26:36;;;;;;;5.37;3.97;;;7.90;98.20;;;;;;20910508;28;20303;-73
2023/01/03 06:36:38;;;;;;;6.10;4.80;;;7.90;98.30;;;;;;20926654;28;20665;-73
2023/01/03 06:57:00;;;;;;;7.93;5.47;;;7.70;98.50;;;;;;20924830;28;20224;-73
2023/01/03 07:07:01;;;;;;;6.10;5.10;;;7.70;98.50;;;;;;20924102;28;20224;-68
2023/01/03 07:17:03;;;;;;;9.53;5.63;;;7.90;98.30;;;;;;20918581;28;20284;-73
2023/01/03 07:27:04;;;;;;;9.47;4.90;;;7.90;98.50;;;;;;20877091;28;20208;-73
2023/01/03 07:37:06;;;;;;;8.83;6.00;;;7.70;98.30;;;;;;20920574;28;20293;-71
2023/01/03 07:47:08;;;;;;;11.83;5.90;;;7.70;98.20;;;;;;20917905;28;20276;-69
2023/01/03 07:57:09;;;;;;;9.67;6.10;;;7.80;98.50;;;;;;20863724;28;20229;-66
2023/01/03 08:07:11;;;;;;;9.10;5.70;;;7.80;98.50;;;;;;20836973;28;20212;-69
2023/01/03 08:17:13;;;;;;;11.73;7.27;;;7.90;98.30;;;;;;20836761;28;20766;-68
2023/01/03 08:27:14;;;;;;;11.67;6.60;;;7.90;98.30;;;;;;20856156;28;20258;-68
2023/01/03 08:37:18;;;;;;;9.97;7.13;;;7.90;98.30;;;;;;20914855;28;20245;-68
2023/01/03 08:47:20;;;;;;;12.30;7.27;;;8.00;98.40;;;;;;20915962;28;20250;-68
2023/01/03 08:57:22;;;;;;;14.37;8.80;;;8.00;98.70;;;;;;20913840;28;20232;-68
2023/01/03 09:07:24;;;;;;;10.33;7.53;;;8.00;98.70;;;;;;20914484;28;20265;-68
2023/01/03 09:17:25;;;;;;;11.20;6.97;;;8.10;98.80;;;;;;20913913;28;20773;-67
2023/01/03 09:27:27;;;;;;;10.57;7.07;;;8.20;98.70;;;;;;20913113;28;20205;-69
2023/01/03 09:37:28;;;;;;;8.03;6.47;;;8.50;98.40;;;;;;20912190;28;20236;-69
2023/01/03 09:47:35;;;;;;;14.47;8.47;;;8.60;98.40;;;;;;20911798;28;20204;-69
2023/01/03 10:08:42;;;;;;;9.73;7.00;;;8.60;98.60;;;;;;20920940;28;20217;-68
2023/01/03 10:18:59;;;;;;;14.53;6.83;;;8.70;98.80;;;;;;20927299;28;20235;-69
2023/01/03 10:29:01;;;;;;;14.10;7.00;;;9.10;98.90;;;;;;20925925;28;20264;-69
2023/01/03 10:39:08;;;;;;;18.80;6.67;;;9.40;98.80;;;;;;20925204;28;20285;-69
2023/01/03 10:49:17;;;;;;;10.30;6.57;;;9.80;98.90;;;;;;20924774;28;20206;-69
2023/01/03 10:59:31;;;;;;;7.63;4.43;;;10.10;98.20;;;;;;20923635;28;20278;-69
2023/01/03 11:09:41;;;;;;;6.60;5.00;;;10.60;97.90;;;;;;20923340;28;20225;-69
2023/01/03 11:19:52;;;;;;;5.20;3.70;;;10.80;97.50;;;;;;20920464;28;20235;-69
2023/01/03 11:30:23;;;;;;;4.83;2.60;;;11.00;97.20;;;;;;20920426;28;20254;-70
2023/01/03 11:41:06;;;;;;;4.90;2.60;;;10.90;96.10;;;;;;20921187;28;20699;-68
2023/01/03 11:51:31;;;;;;;3.80;2.70;;;10.90;95.70;;;;;;20919431;28;20213;-69
2023/01/03 12:02:20;;;;;;;3.77;2.93;;;11.10;95.50;;;;;;20917597;28;20236;-69
2023/01/03 12:12:59;;;;;;;5.27;3.50;;;11.40;95.20;;;;;;20917017;28;20222;-69
2023/01/03 12:23:14;;;;;;;5.03;3.50;;;11.30;94.90;;;;;;20917430;28;20239;-69
2023/01/03 12:33:45;;;;;;;4.83;3.50;;;11.30;94.60;;;;;;20917555;28;20279;-68
2023/01/03 12:44:17;;;;;;;4.17;3.70;;;11.40;94.70;;;;;;20907584;28;20239;-69
2023/01/03 12:54:25;;;;;;;5.00;3.77;;;11.50;94.50;;;;;;20915016;28;20210;-69
2023/01/03 13:04:33;;;;;;;6.23;3.80;;;11.50;94.40;;;;;;20915102;28;20314;-69
2023/01/03 13:14:56;;;;;;;5.03;3.17;;;11.50;94.40;;;;;;20914302;28;20205;-69
2023/01/03 13:25:31;;;;;;;5.23;3.00;;;11.50;94.30;;;;;;20912456;28;20239;-69
2023/01/03 13:35:54;;;;;;;6.13;2.87;;;11.40;94.20;;;;;;20911942;28;20323;-68
2023/01/03 13:46:18;;;;;;;3.77;2.57;;;11.50;94.20;;;;;;20881820;28;20239;-68
2023/01/03 13:56:23;;;;;;;3.50;2.60;;;11.50;94.10;;;;;;20886805;28;20257;-67
2023/01/03 14:07:06;;;;;;;3.93;3.00;;;11.50;94.10;;;;;;20831926;28;20337;-65
2023/01/03 14:17:17;;;;;;;4.90;2.93;;;11.70;93.80;;;;;;20845992;28;20671;-67
2023/01/03 14:27:22;;;;;;;5.07;3.10;;;11.40;93.90;;;;;;20910163;28;20604;-69
2023/01/03 14:37:25;;;;;;;6.20;3.50;;;11.10;94.00;;;;;;20909515;28;20242;-68
2023/01/03 14:47:38;;;;;;;4.43;3.10;;;11.00;94.40;;;;;;20910511;28;20682;-70
2023/01/03 14:57:42;;;;;;;5.90;3.10;;;10.80;94.20;;;;;;20846045;28;20223;-67
2023/01/03 15:07:44;;;;;;;4.57;2.90;;;10.80;94.40;;;;;;20841937;28;20726;-66
2023/01/03 15:17:50;;;;;;;7.20;3.70;;;10.70;94.50;;;;;;20841410;28;20236;-69
2023/01/03 15:27:51;;;;;;;14.83;10.33;;;10.70;94.60;;;;;;20840079;28;20207;-67
2023/01/03 15:37:54;;;;;;;8.00;3.57;;;10.60;94.70;;;;;;20837457;28;20636;-71
2023/01/03 15:47:58;;;;;;;8.93;5.10;;;10.60;94.90;;;;;;20841578;28;20205;-76
2023/01/03 15:57:59;;;;;;;5.07;3.67;;;10.60;94.90;;;;;;20840567;28;20235;-75
2023/01/03 16:08:04;;;;;;;6.23;4.20;;;10.50;95.10;;;;;;20835107;28;20264;-74
2023/01/03 16:18:07;;;;;;;12.20;4.77;;;10.50;95.10;;;;;;20836796;28;20234;-74
2023/01/03 16:28:09;;;;;;;11.23;4.00;;;10.50;95.20;;;;;;20835776;28;20208;-74
2023/01/03 16:38:14;;;;;;;6.40;3.33;;;10.50;95.20;;;;;;20834699;28;20263;-72
2023/01/03 16:48:19;;;;;;;5.27;3.07;;;10.50;95.20;;;;;;20834451;28;20241;-71
2023/01/03 16:58:22;;;;;;;4.80;3.30;;;10.50;95.20;;;;;;20833413;28;20592;-74
2023/01/03 17:08:36;;;;;;;6.20;3.00;;;10.50;95.20;;;;;;20906110;28;20615;-73
2023/01/03 17:18:41;;;;;;;4.70;2.90;;;10.50;95.20;;;;;;20913869;28;20236;-72
2023/01/03 17:28:43;;;;;;;5.03;2.63;;;10.50;95.20;;;;;;20913535;28;20558;-77
2023/01/03 17:38:45;;;;;;;4.37;2.50;;;10.50;95.10;;;;;;20912736;28;20245;-71
2023/01/03 17:59:11;;;;;;;4.30;3.47;;;10.30;95.20;;;;;;20911967;28;20238;-72
2023/01/03 18:09:14;;;;;;;6.70;3.23;;;10.30;95.20;;;;;;20911698;28;20210;-73
2023/01/03 18:19:16;;;;;;;4.90;3.37;;;10.40;95.30;;;;;;20911073;28;20229;-74
2023/01/03 18:29:17;;;;;;;5.03;3.80;;;10.40;95.30;;;;;;20922605;28;20211;-75
2023/01/03 18:39:27;;;;;;;4.83;3.37;;;10.30;95.30;;;;;;20926542;28;20308;-75
2023/01/03 18:49:29;;;;;;;7.77;4.30;;;10.30;95.50;;;;;;20924487;28;20273;-72
2023/01/03 18:59:31;;;;;;;4.47;3.30;;;10.20;95.40;;;;;;20926018;28;20307;-81
2023/01/03 19:09:32;;;;;;;11.13;7.70;;;10.10;95.50;;;;;;20922708;28;20218;-77
2023/01/03 19:19:34;;;;;;;6.40;4.50;;;10.10;95.50;;;;;;20923440;28;21035;-76
2023/01/03 19:29:37;;;;;;;11.23;3.77;;;10.00;95.70;;;;;;20923211;28;20222;-77
2023/01/03 19:39:39;;;;;;;9.73;5.23;;;10.00;95.80;;;;;;20921679;28;20241;-77
2023/01/03 19:49:41;;;;;;;8.43;5.53;;;9.90;96.30;;;;;;20918968;28;20200;-75
2023/01/03 19:59:47;;;;;;;11.07;6.07;;;9.70;96.50;;;;;;20877001;28;20246;-75
2023/01/03 20:09:49;;;;;;;12.67;6.50;;;9.50;96.70;;;;;;20888325;28;20223;-71
2023/01/03 20:19:51;;;;;;;14.80;7.33;;;9.30;97.00;;;;;;20836825;28;20244;-72
2023/01/03 20:29:53;;;;;;;10.50;7.30;;;9.10;97.10;;;;;;20894155;28;20200;-73
2023/01/03 20:39:55;;;;;;;15.03;8.87;;;9.00;97.30;;;;;;20918094;28;20725;-80
2023/01/03 20:49:56;;;;;;;14.03;8.67;;;8.90;97.40;;;;;;20916592;28;20219;-77
2023/01/03 20:59:58;;;;;;;10.67;6.53;;;8.70;97.50;;;;;;20892035;28;20263;-76
2023/01/03 21:10:00;;;;;;;7.73;4.53;;;8.60;97.70;;;;;;20832950;28;20213;-80
2023/01/03 21:20:01;;;;;;;12.53;4.80;;;8.80;98.00;;;;;;20832418;28;20699;-79
2023/01/03 21:30:04;;;;;;;5.77;3.77;;;8.90;97.90;;;;;;20837216;28;20215;-80
2023/01/03 21:40:12;;;;;;;5.57;3.43;;;9.00;97.90;;;;;;20831279;28;20303;-79
2023/01/03 21:50:14;;;;;;;7.70;4.47;;;9.10;97.90;;;;;;20830596;28;20258;-79
2023/01/03 22:00:17;;;;;;;6.30;4.90;;;9.20;97.80;;;;;;20854226;28;20243;-76
2023/01/03 22:10:18;;;;;;;8.00;5.17;;;9.20;97.70;;;;;;20911742;28;20209;-77
2023/01/03 22:20:23;;;;;;;5.77;4.07;;;9.10;97.60;;;;;;20911455;28;20638;-77
2023/01/03 22:30:25;;;;;;;4.40;3.80;;;9.10;97.70;;;;;;20911218;28;20204;-77
2023/01/03 22:40:27;;;;;;;5.13;3.90;;;9.20;97.70;;;;;;20910910;28;20254;-75
2023/01/03 22:50:28;;;;;;;5.50;4.27;;;9.10;97.60;;;;;;20910073;28;20586;-75
2023/01/03 23:00:30;;;;;;;9.60;4.43;;;9.10;97.60;;;;;;20910468;28;20310;-73
2023/01/03 23:10:32;;;;;;;7.50;4.30;;;9.00;97.60;;;;;;20910645;28;20209;-76
2023/01/03 23:20:34;;;;;;;6.97;3.70;;;9.00;97.60;;;;;;20922650;28;20231;-75
2023/01/03 23:30:36;;;;;;;7.83;3.83;;;9.00;97.50;;;;;;20923680;28;20203;-74
2023/01/03 23:40:39;;;;;;;6.57;4.50;;;8.90;97.40;;;;;;20922439;28;20248;-74
2023/01/03 23:50:41;;;;;;;9.90;5.30;;;8.80;97.20;;;;;;20921785;28;20655;-75
